sensor_id;sensor_type;location;lat;lon;timestamp;P1;durP1;ratioP1;P2;durP2;ratioP2
77105;SDS011;66057;54.718;18.426;2023-05-29T00:00:28;5.53;;;2.45;;
77105;SDS011;66057;54.718;18.426;2023-05-29T00:03:26;10.40;;;3.58;;
77105;SDS011;66057;54.718;18.426;2023-05-29T00:05:53;8.07;;;2.63;;
77105;SDS011;66057;54.718;18.426;2023-05-29T00:08:25;6.30;;;2.17;;
77105;SDS011;66057;54.718;18.426;2023-05-29T00:11:02;5.68;;;2.80;;
77105;SDS011;66057;54.718;18.426;2023-05-29T00:13:35;7.85;;;2.60;;
77105;SDS011;66057;54.718;18.426;2023-05-29T00:16:07;7.10;;;2.53;;
77105;SDS011;66057;54.718;18.426;2023-05-29T00:18:44;7.25;;;2.75;;
77105;SDS011;66057;54.718;18.426;2023-05-29T00:21:13;6.70;;;3.13;;
77105;SDS011;66057;54.718;18.426;2023-05-29T00:23:40;6.10;;;3.20;;
77105;SDS011;66057;54.718;18.426;2023-05-29T00:26:09;7.30;;;2.33;;
77105;SDS011;66057;54.718;18.426;2023-05-29T00:28:41;6.47;;;2.70;;
77105;SDS011;66057;54.718;18.426;2023-05-29T00:31:07;8.50;;;2.90;;
77105;SDS011;66057;54.718;18.426;2023-05-29T00:33:41;9.38;;;3.00;;
77105;SDS011;66057;54.718;18.426;2023-05-29T00:36:11;10.07;;;3.55;;
77105;SDS011;66057;54.718;18.426;2023-05-29T00:38:46;7.22;;;2.88;;
77105;SDS011;66057;54.718;18.426;2023-05-29T00:41:16;7.95;;;2.83;;
77105;SDS011;66057;54.718;18.426;2023-05-29T00:43:43;6.90;;;2.90;;
77105;SDS011;66057;54.718;18.426;2023-05-29T00:46:09;7.90;;;2.50;;
77105;SDS011;66057;54.718;18.426;2023-05-29T00:48:45;9.57;;;3.72;;
77105;SDS011;66057;54.718;18.426;2023-05-29T00:51:11;15.38;;;4.15;;
77105;SDS011;66057;54.718;18.426;2023-05-29T00:53:45;5.20;;;2.78;;
77105;SDS011;66057;54.718;18.426;2023-05-29T00:56:13;9.07;;;3.70;;
77105;SDS011;66057;54.718;18.426;2023-05-29T00:59:03;5.10;;;2.58;;
77105;SDS011;66057;54.718;18.426;2023-05-29T01:01:41;9.98;;;3.67;;
77105;SDS011;66057;54.718;18.426;2023-05-29T01:04:19;8.48;;;3.40;;
77105;SDS011;66057;54.718;18.426;2023-05-29T01:06:50;6.82;;;3.10;;
77105;SDS011;66057;54.718;18.426;2023-05-29T01:09:20;5.72;;;2.78;;
77105;SDS011;66057;54.718;18.426;2023-05-29T01:14:23;9.27;;;3.78;;
77105;SDS011;66057;54.718;18.426;2023-05-29T01:17:17;5.18;;;3.03;;
77105;SDS011;66057;54.718;18.426;2023-05-29T01:22:40;9.27;;;2.25;;
77105;SDS011;66057;54.718;18.426;2023-05-29T01:25:45;3.83;;;2.03;;
77105;SDS011;66057;54.718;18.426;2023-05-29T01:28:51;6.90;;;2.85;;
77105;SDS011;66057;54.718;18.426;2023-05-29T01:31:27;7.15;;;3.20;;
77105;SDS011;66057;54.718;18.426;2023-05-29T01:33:54;6.18;;;2.83;;
77105;SDS011;66057;54.718;18.426;2023-05-29T01:36:33;5.80;;;3.13;;
77105;SDS011;66057;54.718;18.426;2023-05-29T01:41:33;6.60;;;3.53;;
77105;SDS011;66057;54.718;18.426;2023-05-29T01:44:02;8.85;;;2.67;;
77105;SDS011;66057;54.718;18.426;2023-05-29T01:46:35;8.57;;;3.42;;
77105;SDS011;66057;54.718;18.426;2023-05-29T01:49:07;10.40;;;3.20;;
77105;SDS011;66057;54.718;18.426;2023-05-29T01:51:36;8.23;;;3.10;;
77105;SDS011;66057;54.718;18.426;2023-05-29T01:54:03;11.57;;;3.60;;
77105;SDS011;66057;54.718;18.426;2023-05-29T01:58:59;12.32;;;4.10;;
77105;SDS011;66057;54.718;18.426;2023-05-29T02:01:27;6.70;;;3.88;;
77105;SDS011;66057;54.718;18.426;2023-05-29T02:03:56;9.60;;;3.95;;
77105;SDS011;66057;54.718;18.426;2023-05-29T02:06:23;9.05;;;3.45;;
77105;SDS011;66057;54.718;18.426;2023-05-29T02:08:53;7.30;;;3.40;;
77105;SDS011;66057;54.718;18.426;2023-05-29T02:11:19;9.00;;;3.38;;
77105;SDS011;66057;54.718;18.426;2023-05-29T02:13:46;10.10;;;3.97;;
77105;SDS011;66057;54.718;18.426;2023-05-29T02:16:17;8.07;;;4.22;;
77105;SDS011;66057;54.718;18.426;2023-05-29T02:18:50;8.35;;;3.22;;
77105;SDS011;66057;54.718;18.426;2023-05-29T02:21:19;7.35;;;3.25;;
77105;SDS011;66057;54.718;18.426;2023-05-29T02:23:45;10.00;;;3.08;;
77105;SDS011;66057;54.718;18.426;2023-05-29T02:26:13;8.13;;;3.90;;
77105;SDS011;66057;54.718;18.426;2023-05-29T02:28:46;7.55;;;2.47;;
77105;SDS011;66057;54.718;18.426;2023-05-29T02:31:12;8.82;;;3.50;;
77105;SDS011;66057;54.718;18.426;2023-05-29T02:33:40;6.07;;;3.08;;
77105;SDS011;66057;54.718;18.426;2023-05-29T02:36:06;4.70;;;2.60;;
77105;SDS011;66057;54.718;18.426;2023-05-29T02:38:37;6.45;;;2.70;;
77105;SDS011;66057;54.718;18.426;2023-05-29T02:41:06;9.60;;;3.63;;
77105;SDS011;66057;54.718;18.426;2023-05-29T02:43:38;7.10;;;2.90;;
77105;SDS011;66057;54.718;18.426;2023-05-29T02:46:07;9.52;;;3.63;;
77105;SDS011;66057;54.718;18.426;2023-05-29T02:48:42;10.57;;;3.90;;
77105;SDS011;66057;54.718;18.426;2023-05-29T02:51:11;10.85;;;3.13;;
77105;SDS011;66057;54.718;18.426;2023-05-29T02:53:44;10.63;;;3.33;;
77105;SDS011;66057;54.718;18.426;2023-05-29T02:56:13;10.82;;;3.95;;
77105;SDS011;66057;54.718;18.426;2023-05-29T02:58:41;7.13;;;3.35;;
77105;SDS011;66057;54.718;18.426;2023-05-29T03:01:08;9.30;;;3.63;;
77105;SDS011;66057;54.718;18.426;2023-05-29T03:03:37;6.20;;;3.20;;
77105;SDS011;66057;54.718;18.426;2023-05-29T03:06:04;12.35;;;5.18;;
77105;SDS011;66057;54.718;18.426;2023-05-29T03:08:34;9.10;;;3.90;;
77105;SDS011;66057;54.718;18.426;2023-05-29T03:11:11;10.32;;;3.90;;
77105;SDS011;66057;54.718;18.426;2023-05-29T03:13:39;10.50;;;4.60;;
77105;SDS011;66057;54.718;18.426;2023-05-29T03:16:12;7.85;;;3.17;;
77105;SDS011;66057;54.718;18.426;2023-05-29T03:18:39;12.35;;;4.00;;
77105;SDS011;66057;54.718;18.426;2023-05-29T03:21:07;9.40;;;3.63;;
77105;SDS011;66057;54.718;18.426;2023-05-29T03:23:38;10.25;;;3.88;;
77105;SDS011;66057;54.718;18.426;2023-05-29T03:26:09;7.45;;;3.13;;
77105;SDS011;66057;54.718;18.426;2023-05-29T03:28:36;10.50;;;4.30;;
77105;SDS011;66057;54.718;18.426;2023-05-29T03:31:05;11.02;;;4.03;;
77105;SDS011;66057;54.718;18.426;2023-05-29T03:33:32;8.57;;;3.38;;
77105;SDS011;66057;54.718;18.426;2023-05-29T03:36:01;9.90;;;4.53;;
77105;SDS011;66057;54.718;18.426;2023-05-29T03:38:36;14.45;;;4.43;;
77105;SDS011;66057;54.718;18.426;2023-05-29T03:41:02;13.50;;;4.75;;
77105;SDS011;66057;54.718;18.426;2023-05-29T03:43:34;7.30;;;4.00;;
77105;SDS011;66057;54.718;18.426;2023-05-29T03:46:07;12.07;;;3.28;;
77105;SDS011;66057;54.718;18.426;2023-05-29T03:49:00;8.23;;;3.17;;
77105;SDS011;66057;54.718;18.426;2023-05-29T03:51:32;10.70;;;3.75;;
77105;SDS011;66057;54.718;18.426;2023-05-29T03:54:01;11.18;;;3.30;;
77105;SDS011;66057;54.718;18.426;2023-05-29T03:56:33;9.85;;;2.85;;
77105;SDS011;66057;54.718;18.426;2023-05-29T03:59:05;8.07;;;3.00;;
77105;SDS011;66057;54.718;18.426;2023-05-29T04:01:33;5.38;;;2.22;;
77105;SDS011;66057;54.718;18.426;2023-05-29T04:04:01;6.05;;;2.22;;
77105;SDS011;66057;54.718;18.426;2023-05-29T04:06:27;8.27;;;3.03;;
77105;SDS011;66057;54.718;18.426;2023-05-29T04:08:53;7.25;;;3.40;;
77105;SDS011;66057;54.718;18.426;2023-05-29T04:11:19;7.30;;;2.38;;
77105;SDS011;66057;54.718;18.426;2023-05-29T04:13:46;8.07;;;3.15;;
77105;SDS011;66057;54.718;18.426;2023-05-29T04:16:13;10.40;;;3.10;;
77105;SDS011;66057;54.718;18.426;2023-05-29T04:18:40;10.18;;;3.25;;
77105;SDS011;66057;54.718;18.426;2023-05-29T04:21:07;4.82;;;2.08;;
77105;SDS011;66057;54.718;18.426;2023-05-29T04:23:33;8.98;;;2.85;;
77105;SDS011;66057;54.718;18.426;2023-05-29T04:25:59;9.50;;;2.78;;
77105;SDS011;66057;54.718;18.426;2023-05-29T04:28:29;8.82;;;2.47;;
77105;SDS011;66057;54.718;18.426;2023-05-29T04:30:54;8.98;;;3.20;;
77105;SDS011;66057;54.718;18.426;2023-05-29T04:33:22;6.28;;;3.03;;
77105;SDS011;66057;54.718;18.426;2023-05-29T04:35:51;5.03;;;2.58;;
77105;SDS011;66057;54.718;18.426;2023-05-29T04:38:20;6.50;;;2.75;;
77105;SDS011;66057;54.718;18.426;2023-05-29T04:40:50;5.95;;;2.35;;
77105;SDS011;66057;54.718;18.426;2023-05-29T04:43:28;7.35;;;2.90;;
77105;SDS011;66057;54.718;18.426;2023-05-29T04:45:55;7.57;;;2.92;;
77105;SDS011;66057;54.718;18.426;2023-05-29T04:48:26;4.40;;;2.22;;
77105;SDS011;66057;54.718;18.426;2023-05-29T04:50:52;5.22;;;2.35;;
77105;SDS011;66057;54.718;18.426;2023-05-29T04:53:23;7.22;;;2.65;;
77105;SDS011;66057;54.718;18.426;2023-05-29T04:55:49;7.93;;;2.90;;
77105;SDS011;66057;54.718;18.426;2023-05-29T04:58:15;7.53;;;2.60;;
77105;SDS011;66057;54.718;18.426;2023-05-29T05:00:46;6.75;;;2.78;;
77105;SDS011;66057;54.718;18.426;2023-05-29T05:03:13;7.03;;;2.22;;
77105;SDS011;66057;54.718;18.426;2023-05-29T05:05:43;6.07;;;2.95;;
77105;SDS011;66057;54.718;18.426;2023-05-29T05:08:12;9.27;;;2.63;;
77105;SDS011;66057;54.718;18.426;2023-05-29T05:10:38;10.65;;;2.78;;
77105;SDS011;66057;54.718;18.426;2023-05-29T05:13:04;8.32;;;1.73;;
77105;SDS011;66057;54.718;18.426;2023-05-29T05:15:33;14.20;;;2.63;;
77105;SDS011;66057;54.718;18.426;2023-05-29T05:17:59;16.77;;;2.75;;
77105;SDS011;66057;54.718;18.426;2023-05-29T05:20:28;9.48;;;2.42;;
77105;SDS011;66057;54.718;18.426;2023-05-29T05:22:58;5.68;;;2.17;;
77105;SDS011;66057;54.718;18.426;2023-05-29T05:25:25;12.68;;;2.30;;
77105;SDS011;66057;54.718;18.426;2023-05-29T05:28:02;10.18;;;2.30;;
77105;SDS011;66057;54.718;18.426;2023-05-29T05:30:39;5.80;;;1.65;;
77105;SDS011;66057;54.718;18.426;2023-05-29T05:33:06;8.40;;;1.80;;
77105;SDS011;66057;54.718;18.426;2023-05-29T05:35:35;2.97;;;1.20;;
77105;SDS011;66057;54.718;18.426;2023-05-29T05:38:01;3.95;;;1.13;;
77105;SDS011;66057;54.718;18.426;2023-05-29T05:40:28;3.92;;;1.67;;
77105;SDS011;66057;54.718;18.426;2023-05-29T05:42:56;6.57;;;2.15;;
77105;SDS011;66057;54.718;18.426;2023-05-29T05:45:22;8.88;;;1.80;;
77105;SDS011;66057;54.718;18.426;2023-05-29T05:47:50;9.95;;;1.90;;
77105;SDS011;66057;54.718;18.426;2023-05-29T05:50:16;6.30;;;2.35;;
77105;SDS011;66057;54.718;18.426;2023-05-29T05:52:42;10.70;;;2.70;;
77105;SDS011;66057;54.718;18.426;2023-05-29T05:55:08;12.63;;;2.25;;
77105;SDS011;66057;54.718;18.426;2023-05-29T05:57:37;10.43;;;2.17;;
77105;SDS011;66057;54.718;18.426;2023-05-29T06:00:03;7.97;;;2.10;;
77105;SDS011;66057;54.718;18.426;2023-05-29T06:02:37;7.75;;;1.98;;
77105;SDS011;66057;54.718;18.426;2023-05-29T06:05:03;7.07;;;1.58;;
77105;SDS011;66057;54.718;18.426;2023-05-29T06:07:35;5.60;;;1.55;;
77105;SDS011;66057;54.718;18.426;2023-05-29T06:10:06;7.15;;;2.10;;
77105;SDS011;66057;54.718;18.426;2023-05-29T06:14:59;8.30;;;1.85;;
77105;SDS011;66057;54.718;18.426;2023-05-29T06:19:52;5.15;;;1.58;;
77105;SDS011;66057;54.718;18.426;2023-05-29T06:22:19;4.00;;;1.05;;
77105;SDS011;66057;54.718;18.426;2023-05-29T06:24:45;6.30;;;1.33;;
77105;SDS011;66057;54.718;18.426;2023-05-29T06:27:12;8.77;;;3.65;;
77105;SDS011;66057;54.718;18.426;2023-05-29T06:29:38;6.53;;;1.30;;
77105;SDS011;66057;54.718;18.426;2023-05-29T06:32:08;4.88;;;1.13;;
77105;SDS011;66057;54.718;18.426;2023-05-29T06:34:34;1.88;;;0.50;;
77105;SDS011;66057;54.718;18.426;2023-05-29T06:37:00;7.53;;;1.52;;
77105;SDS011;66057;54.718;18.426;2023-05-29T06:39:26;5.32;;;0.82;;
77105;SDS011;66057;54.718;18.426;2023-05-29T06:41:53;5.22;;;0.85;;
77105;SDS011;66057;54.718;18.426;2023-05-29T06:44:19;5.78;;;1.60;;
77105;SDS011;66057;54.718;18.426;2023-05-29T06:46:45;8.13;;;1.60;;
77105;SDS011;66057;54.718;18.426;2023-05-29T06:49:11;9.15;;;1.17;;
77105;SDS011;66057;54.718;18.426;2023-05-29T06:51:44;2.97;;;1.10;;
77105;SDS011;66057;54.718;18.426;2023-05-29T06:54:13;3.53;;;0.88;;
77105;SDS011;66057;54.718;18.426;2023-05-29T06:56:50;4.40;;;0.75;;
77105;SDS011;66057;54.718;18.426;2023-05-29T06:59:19;4.70;;;0.70;;
77105;SDS011;66057;54.718;18.426;2023-05-29T07:01:46;8.10;;;1.00;;
77105;SDS011;66057;54.718;18.426;2023-05-29T07:04:12;6.60;;;1.13;;
77105;SDS011;66057;54.718;18.426;2023-05-29T07:09:04;5.30;;;0.60;;
77105;SDS011;66057;54.718;18.426;2023-05-29T07:11:30;3.92;;;0.40;;
77105;SDS011;66057;54.718;18.426;2023-05-29T07:13:56;6.00;;;1.35;;
77105;SDS011;66057;54.718;18.426;2023-05-29T07:16:32;3.53;;;0.77;;
77105;SDS011;66057;54.718;18.426;2023-05-29T07:19:10;7.28;;;1.05;;
77105;SDS011;66057;54.718;18.426;2023-05-29T07:21:46;6.45;;;1.80;;
77105;SDS011;66057;54.718;18.426;2023-05-29T07:24:12;3.38;;;1.02;;
77105;SDS011;66057;54.718;18.426;2023-05-29T07:26:39;8.38;;;1.00;;
77105;SDS011;66057;54.718;18.426;2023-05-29T07:29:05;8.82;;;0.80;;
77105;SDS011;66057;54.718;18.426;2023-05-29T07:31:31;8.20;;;1.10;;
77105;SDS011;66057;54.718;18.426;2023-05-29T07:33:57;5.18;;;0.90;;
77105;SDS011;66057;54.718;18.426;2023-05-29T07:38:55;7.22;;;1.35;;
77105;SDS011;66057;54.718;18.426;2023-05-29T07:41:23;9.65;;;1.10;;
77105;SDS011;66057;54.718;18.426;2023-05-29T07:43:52;2.47;;;0.70;;
77105;SDS011;66057;54.718;18.426;2023-05-29T07:46:18;4.80;;;0.77;;
77105;SDS011;66057;54.718;18.426;2023-05-29T07:48:45;5.45;;;0.93;;
77105;SDS011;66057;54.718;18.426;2023-05-29T07:51:15;7.97;;;1.13;;
77105;SDS011;66057;54.718;18.426;2023-05-29T07:53:44;5.88;;;0.60;;
77105;SDS011;66057;54.718;18.426;2023-05-29T07:56:12;1.27;;;0.22;;
77105;SDS011;66057;54.718;18.426;2023-05-29T08:01:07;3.22;;;0.45;;
77105;SDS011;66057;54.718;18.426;2023-05-29T08:03:35;2.35;;;0.28;;
77105;SDS011;66057;54.718;18.426;2023-05-29T08:08:27;1.73;;;0.80;;
77105;SDS011;66057;54.718;18.426;2023-05-29T08:10:58;0.98;;;0.32;;
77105;SDS011;66057;54.718;18.426;2023-05-29T08:13:23;3.22;;;0.40;;
77105;SDS011;66057;54.718;18.426;2023-05-29T08:15:53;5.72;;;1.00;;
77105;SDS011;66057;54.718;18.426;2023-05-29T08:18:19;4.18;;;0.90;;
77105;SDS011;66057;54.718;18.426;2023-05-29T08:20:50;4.97;;;1.02;;
77105;SDS011;66057;54.718;18.426;2023-05-29T08:23:19;2.38;;;0.30;;
77105;SDS011;66057;54.718;18.426;2023-05-29T08:25:45;4.18;;;0.52;;
77105;SDS011;66057;54.718;18.426;2023-05-29T08:28:11;5.10;;;0.68;;
77105;SDS011;66057;54.718;18.426;2023-05-29T08:30:43;6.13;;;0.47;;
77105;SDS011;66057;54.718;18.426;2023-05-29T08:33:10;2.97;;;0.30;;
77105;SDS011;66057;54.718;18.426;2023-05-29T08:35:38;5.65;;;0.77;;
77105;SDS011;66057;54.718;18.426;2023-05-29T08:38:06;4.85;;;0.47;;
77105;SDS011;66057;54.718;18.426;2023-05-29T08:40:32;4.18;;;0.38;;
77105;SDS011;66057;54.718;18.426;2023-05-29T08:43:12;4.22;;;0.50;;
77105;SDS011;66057;54.718;18.426;2023-05-29T08:45:44;3.90;;;0.57;;
77105;SDS011;66057;54.718;18.426;2023-05-29T08:48:10;4.95;;;0.73;;
77105;SDS011;66057;54.718;18.426;2023-05-29T08:50:45;2.67;;;0.30;;
77105;SDS011;66057;54.718;18.426;2023-05-29T08:53:13;3.40;;;0.88;;
77105;SDS011;66057;54.718;18.426;2023-05-29T08:55:42;1.55;;;0.47;;
77105;SDS011;66057;54.718;18.426;2023-05-29T08:58:09;3.83;;;0.75;;
77105;SDS011;66057;54.718;18.426;2023-05-29T09:00:37;2.72;;;0.47;;
77105;SDS011;66057;54.718;18.426;2023-05-29T09:03:05;2.28;;;0.50;;
77105;SDS011;66057;54.718;18.426;2023-05-29T09:05:31;1.65;;;0.38;;
77105;SDS011;66057;54.718;18.426;2023-05-29T09:07:59;5.47;;;0.65;;
77105;SDS011;66057;54.718;18.426;2023-05-29T09:10:25;1.55;;;0.32;;
77105;SDS011;66057;54.718;18.426;2023-05-29T09:12:54;2.88;;;0.35;;
77105;SDS011;66057;54.718;18.426;2023-05-29T09:15:21;3.58;;;0.52;;
77105;SDS011;66057;54.718;18.426;2023-05-29T09:17:53;4.43;;;0.60;;
77105;SDS011;66057;54.718;18.426;2023-05-29T09:20:21;2.63;;;0.60;;
77105;SDS011;66057;54.718;18.426;2023-05-29T09:22:54;2.53;;;0.47;;
77105;SDS011;66057;54.718;18.426;2023-05-29T09:25:24;5.20;;;0.50;;
77105;SDS011;66057;54.718;18.426;2023-05-29T09:30:34;2.35;;;0.38;;
77105;SDS011;66057;54.718;18.426;2023-05-29T09:33:04;5.55;;;0.43;;
77105;SDS011;66057;54.718;18.426;2023-05-29T09:35:41;4.55;;;0.73;;
77105;SDS011;66057;54.718;18.426;2023-05-29T09:38:12;5.65;;;0.52;;
77105;SDS011;66057;54.718;18.426;2023-05-29T09:40:40;3.45;;;0.57;;
77105;SDS011;66057;54.718;18.426;2023-05-29T09:43:16;2.63;;;0.38;;
77105;SDS011;66057;54.718;18.426;2023-05-29T09:45:46;4.25;;;0.47;;
77105;SDS011;66057;54.718;18.426;2023-05-29T09:48:14;2.95;;;0.40;;
77105;SDS011;66057;54.718;18.426;2023-05-29T09:50:44;4.15;;;0.82;;
77105;SDS011;66057;54.718;18.426;2023-05-29T09:53:19;7.15;;;0.75;;
77105;SDS011;66057;54.718;18.426;2023-05-29T09:55:56;3.72;;;0.40;;
77105;SDS011;66057;54.718;18.426;2023-05-29T09:58:27;2.47;;;0.52;;
77105;SDS011;66057;54.718;18.426;2023-05-29T10:00:57;5.05;;;0.43;;
77105;SDS011;66057;54.718;18.426;2023-05-29T10:03:23;4.50;;;0.90;;
77105;SDS011;66057;54.718;18.426;2023-05-29T10:05:50;2.70;;;0.30;;
77105;SDS011;66057;54.718;18.426;2023-05-29T10:08:20;2.33;;;0.25;;
77105;SDS011;66057;54.718;18.426;2023-05-29T10:10:48;3.95;;;0.60;;
77105;SDS011;66057;54.718;18.426;2023-05-29T10:13:21;4.38;;;0.50;;
77105;SDS011;66057;54.718;18.426;2023-05-29T10:15:55;2.58;;;0.47;;
77105;SDS011;66057;54.718;18.426;2023-05-29T10:18:26;6.30;;;0.77;;
77105;SDS011;66057;54.718;18.426;2023-05-29T10:20:58;4.57;;;0.63;;
77105;SDS011;66057;54.718;18.426;2023-05-29T10:23:27;5.55;;;0.55;;
77105;SDS011;66057;54.718;18.426;2023-05-29T10:25:58;1.73;;;0.30;;
77105;SDS011;66057;54.718;18.426;2023-05-29T10:28:33;4.88;;;0.82;;
77105;SDS011;66057;54.718;18.426;2023-05-29T10:31:09;3.40;;;0.80;;
77105;SDS011;66057;54.718;18.426;2023-05-29T10:33:56;4.22;;;0.57;;
77105;SDS011;66057;54.718;18.426;2023-05-29T10:36:25;3.92;;;0.50;;
77105;SDS011;66057;54.718;18.426;2023-05-29T10:38:59;5.18;;;0.40;;
77105;SDS011;66057;54.718;18.426;2023-05-29T10:43:58;3.10;;;0.50;;
77105;SDS011;66057;54.718;18.426;2023-05-29T10:51:48;2.80;;;0.75;;
77105;SDS011;66057;54.718;18.426;2023-05-29T10:56:52;6.18;;;0.75;;
77105;SDS011;66057;54.718;18.426;2023-05-29T10:59:23;2.78;;;1.23;;
77105;SDS011;66057;54.718;18.426;2023-05-29T11:02:00;3.72;;;0.65;;
77105;SDS011;66057;54.718;18.426;2023-05-29T11:04:31;3.00;;;0.95;;
77105;SDS011;66057;54.718;18.426;2023-05-29T11:06:59;3.50;;;0.55;;
77105;SDS011;66057;54.718;18.426;2023-05-29T11:20:06;6.38;;;1.05;;
77105;SDS011;66057;54.718;18.426;2023-05-29T11:25:26;3.42;;;0.68;;
77105;SDS011;66057;54.718;18.426;2023-05-29T11:27:55;4.60;;;0.47;;
77105;SDS011;66057;54.718;18.426;2023-05-29T11:30:21;4.22;;;0.43;;
77105;SDS011;66057;54.718;18.426;2023-05-29T11:32:52;2.78;;;0.38;;
77105;SDS011;66057;54.718;18.426;2023-05-29T11:35:21;3.95;;;0.45;;
77105;SDS011;66057;54.718;18.426;2023-05-29T11:37:48;4.07;;;0.40;;
77105;SDS011;66057;54.718;18.426;2023-05-29T11:40:15;2.30;;;0.50;;
77105;SDS011;66057;54.718;18.426;2023-05-29T11:42:44;3.45;;;0.40;;
77105;SDS011;66057;54.718;18.426;2023-05-29T11:47:57;1.92;;;0.60;;
77105;SDS011;66057;54.718;18.426;2023-05-29T11:50:25;4.95;;;0.55;;
77105;SDS011;66057;54.718;18.426;2023-05-29T11:52:59;2.60;;;0.30;;
77105;SDS011;66057;54.718;18.426;2023-05-29T11:55:26;4.22;;;0.60;;
77105;SDS011;66057;54.718;18.426;2023-05-29T11:57:57;2.58;;;0.65;;
77105;SDS011;66057;54.718;18.426;2023-05-29T12:00:31;1.95;;;0.70;;
77105;SDS011;66057;54.718;18.426;2023-05-29T12:02:59;3.17;;;0.40;;
77105;SDS011;66057;54.718;18.426;2023-05-29T12:05:29;5.35;;;0.60;;
77105;SDS011;66057;54.718;18.426;2023-05-29T12:07:57;5.28;;;0.60;;
77105;SDS011;66057;54.718;18.426;2023-05-29T12:10:26;7.03;;;0.52;;
77105;SDS011;66057;54.718;18.426;2023-05-29T12:12:58;5.03;;;0.60;;
77105;SDS011;66057;54.718;18.426;2023-05-29T12:15:26;3.25;;;0.63;;
77105;SDS011;66057;54.718;18.426;2023-05-29T12:20:19;5.07;;;0.50;;
77105;SDS011;66057;54.718;18.426;2023-05-29T12:22:51;4.07;;;0.43;;
77105;SDS011;66057;54.718;18.426;2023-05-29T12:25:18;2.20;;;0.70;;
77105;SDS011;66057;54.718;18.426;2023-05-29T12:27:46;5.22;;;0.57;;
77105;SDS011;66057;54.718;18.426;2023-05-29T12:30:20;6.00;;;1.27;;
77105;SDS011;66057;54.718;18.426;2023-05-29T12:32:48;4.22;;;0.73;;
77105;SDS011;66057;54.718;18.426;2023-05-29T12:35:23;5.40;;;0.50;;
77105;SDS011;66057;54.718;18.426;2023-05-29T12:42:55;2.28;;;0.73;;
77105;SDS011;66057;54.718;18.426;2023-05-29T12:45:29;4.78;;;0.93;;
77105;SDS011;66057;54.718;18.426;2023-05-29T12:48:00;2.90;;;0.68;;
77105;SDS011;66057;54.718;18.426;2023-05-29T12:50:28;2.13;;;0.55;;
77105;SDS011;66057;54.718;18.426;2023-05-29T12:53:02;5.03;;;0.60;;
77105;SDS011;66057;54.718;18.426;2023-05-29T12:55:31;2.00;;;0.38;;
77105;SDS011;66057;54.718;18.426;2023-05-29T12:57:59;8.43;;;0.55;;
77105;SDS011;66057;54.718;18.426;2023-05-29T13:00:25;3.70;;;0.75;;
77105;SDS011;66057;54.718;18.426;2023-05-29T13:05:17;2.08;;;0.47;;
77105;SDS011;66057;54.718;18.426;2023-05-29T13:07:46;1.30;;;0.52;;
77105;SDS011;66057;54.718;18.426;2023-05-29T13:10:12;3.53;;;0.95;;
77105;SDS011;66057;54.718;18.426;2023-05-29T13:12:39;3.85;;;0.40;;
77105;SDS011;66057;54.718;18.426;2023-05-29T13:15:05;5.47;;;0.35;;
77105;SDS011;66057;54.718;18.426;2023-05-29T13:17:32;3.03;;;0.90;;
77105;SDS011;66057;54.718;18.426;2023-05-29T13:20:00;2.13;;;1.35;;
77105;SDS011;66057;54.718;18.426;2023-05-29T13:22:26;4.40;;;0.52;;
77105;SDS011;66057;54.718;18.426;2023-05-29T13:24:57;1.73;;;0.75;;
77105;SDS011;66057;54.718;18.426;2023-05-29T13:27:25;4.30;;;0.88;;
77105;SDS011;66057;54.718;18.426;2023-05-29T13:29:52;2.40;;;0.47;;
77105;SDS011;66057;54.718;18.426;2023-05-29T13:32:36;5.68;;;0.73;;
77105;SDS011;66057;54.718;18.426;2023-05-29T13:35:01;3.67;;;0.50;;
77105;SDS011;66057;54.718;18.426;2023-05-29T13:37:28;3.40;;;0.80;;
77105;SDS011;66057;54.718;18.426;2023-05-29T13:39:55;4.38;;;0.55;;
77105;SDS011;66057;54.718;18.426;2023-05-29T13:42:21;2.97;;;0.45;;
77105;SDS011;66057;54.718;18.426;2023-05-29T13:44:47;6.13;;;0.95;;
77105;SDS011;66057;54.718;18.426;2023-05-29T13:47:16;6.97;;;1.55;;
77105;SDS011;66057;54.718;18.426;2023-05-29T13:49:43;4.65;;;0.82;;
77105;SDS011;66057;54.718;18.426;2023-05-29T13:54:38;4.50;;;0.75;;
77105;SDS011;66057;54.718;18.426;2023-05-29T13:57:04;6.38;;;0.95;;
77105;SDS011;66057;54.718;18.426;2023-05-29T13:59:32;6.45;;;1.13;;
77105;SDS011;66057;54.718;18.426;2023-05-29T14:01:59;4.63;;;0.93;;
77105;SDS011;66057;54.718;18.426;2023-05-29T14:04:25;8.25;;;1.00;;
77105;SDS011;66057;54.718;18.426;2023-05-29T14:06:55;4.15;;;1.02;;
77105;SDS011;66057;54.718;18.426;2023-05-29T14:09:22;5.68;;;1.25;;
77105;SDS011;66057;54.718;18.426;2023-05-29T14:11:53;4.22;;;0.70;;
77105;SDS011;66057;54.718;18.426;2023-05-29T14:14:20;2.55;;;0.70;;
77105;SDS011;66057;54.718;18.426;2023-05-29T14:16:46;4.18;;;0.90;;
77105;SDS011;66057;54.718;18.426;2023-05-29T14:19:13;3.38;;;0.60;;
77105;SDS011;66057;54.718;18.426;2023-05-29T14:24:05;1.55;;;0.75;;
77105;SDS011;66057;54.718;18.426;2023-05-29T14:26:33;4.65;;;0.52;;
77105;SDS011;66057;54.718;18.426;2023-05-29T14:28:59;5.32;;;0.73;;
77105;SDS011;66057;54.718;18.426;2023-05-29T14:31:27;6.20;;;1.02;;
77105;SDS011;66057;54.718;18.426;2023-05-29T14:33:54;5.88;;;0.65;;
77105;SDS011;66057;54.718;18.426;2023-05-29T14:38:46;3.53;;;0.82;;
77105;SDS011;66057;54.718;18.426;2023-05-29T14:41:16;6.05;;;1.38;;
77105;SDS011;66057;54.718;18.426;2023-05-29T14:43:43;7.32;;;0.85;;
77105;SDS011;66057;54.718;18.426;2023-05-29T14:46:10;6.43;;;0.80;;
77105;SDS011;66057;54.718;18.426;2023-05-29T14:48:37;5.28;;;1.33;;
77105;SDS011;66057;54.718;18.426;2023-05-29T14:51:03;5.82;;;1.13;;
77105;SDS011;66057;54.718;18.426;2023-05-29T14:53:28;5.32;;;0.75;;
77105;SDS011;66057;54.718;18.426;2023-05-29T14:55:57;7.47;;;1.20;;
77105;SDS011;66057;54.718;18.426;2023-05-29T14:58:23;6.75;;;1.02;;
77105;SDS011;66057;54.718;18.426;2023-05-29T15:00:49;5.38;;;0.80;;
77105;SDS011;66057;54.718;18.426;2023-05-29T15:03:15;7.80;;;1.70;;
77105;SDS011;66057;54.718;18.426;2023-05-29T15:05:41;3.88;;;0.90;;
77105;SDS011;66057;54.718;18.426;2023-05-29T15:08:06;4.60;;;0.73;;
77105;SDS011;66057;54.718;18.426;2023-05-29T15:10:33;7.97;;;1.05;;
77105;SDS011;66057;54.718;18.426;2023-05-29T15:12:59;5.00;;;0.75;;
77105;SDS011;66057;54.718;18.426;2023-05-29T15:15:27;4.13;;;0.90;;
77105;SDS011;66057;54.718;18.426;2023-05-29T15:17:54;6.93;;;1.17;;
77105;SDS011;66057;54.718;18.426;2023-05-29T15:20:24;5.43;;;1.08;;
77105;SDS011;66057;54.718;18.426;2023-05-29T15:22:51;7.80;;;1.55;;
77105;SDS011;66057;54.718;18.426;2023-05-29T15:25:19;4.07;;;0.68;;
77105;SDS011;66057;54.718;18.426;2023-05-29T15:27:45;2.67;;;0.50;;
77105;SDS011;66057;54.718;18.426;2023-05-29T15:30:12;5.75;;;1.10;;
77105;SDS011;66057;54.718;18.426;2023-05-29T15:32:40;4.47;;;1.13;;
77105;SDS011;66057;54.718;18.426;2023-05-29T15:35:08;7.85;;;1.50;;
77105;SDS011;66057;54.718;18.426;2023-05-29T15:37:37;7.82;;;1.20;;
77105;SDS011;66057;54.718;18.426;2023-05-29T15:40:04;2.45;;;0.70;;
77105;SDS011;66057;54.718;18.426;2023-05-29T15:42:31;7.07;;;1.40;;
77105;SDS011;66057;54.718;18.426;2023-05-29T15:44:58;4.50;;;1.70;;
77105;SDS011;66057;54.718;18.426;2023-05-29T15:47:25;6.32;;;0.80;;
77105;SDS011;66057;54.718;18.426;2023-05-29T15:49:52;4.78;;;0.85;;
77105;SDS011;66057;54.718;18.426;2023-05-29T15:52:19;3.88;;;0.52;;
77105;SDS011;66057;54.718;18.426;2023-05-29T15:57:13;3.38;;;0.82;;
77105;SDS011;66057;54.718;18.426;2023-05-29T16:02:05;5.38;;;1.00;;